Time;durP1;ratioP1;P1;durP2;ratioP2;P2;SDS_P1;SDS_P2;PMS_P1;PMS_P2;Temp;Humidity;BMP_temperature;BMP_pressure;BME280_temperature;BME280_humidity;BME280_pressure;Samples;Min_cycle;Max_cycle;Signal;HPM_P1;HPM_P2
2021/11/09 00:01:53;;;;;;;0.43;0.35;;;;;;;5.56;60.55;98538.81;5049239;28;20087;-55
2021/11/09 00:04:22;;;;;;;0.70;0.50;;;;;;;5.62;61.27;98548.06;5050499;28;20140;-61
2021/11/09 00:06:58;;;;;;;1.10;0.30;;;;;;;5.63;61.22;98548.94;5054237;28;20036;-57
2021/11/09 00:09:24;;;;;;;0.40;0.30;;;;;;;5.57;61.54;98561.72;5054343;28;20393;-59
2021/11/09 00:11:49;;;;;;;0.50;0.30;;;;;;;5.58;61.70;98562.56;5054252;28;20037;-60
2021/11/09 00:14:15;;;;;;;2.05;0.60;;;;;;;5.57;62.17;98560.88;5054271;28;20388;-58
2021/11/09 00:16:40;;;;;;;0.30;0.30;;;;;;;5.55;61.96;98560.16;5052837;28;20419;-58
2021/11/09 00:19:06;;;;;;;1.95;0.40;;;;;;;5.64;62.51;98571.84;5054533;28;20088;-55
2021/11/09 00:21:31;;;;;;;2.28;0.30;;;;;;;5.65;62.31;98570.88;5054257;28;20033;-57
2021/11/09 00:24:00;;;;;;;0.30;0.30;;;;;;;5.58;62.25;98568.72;5053951;28;20584;-60
2021/11/09 00:26:27;;;;;;;1.00;0.60;;;;;;;5.60;62.81;98566.78;5052559;28;20051;-57
2021/11/09 00:28:53;;;;;;;1.73;0.57;;;;;;;5.62;62.28;98560.50;5052251;28;20512;-54
2021/11/09 00:31:18;;;;;;;2.72;0.60;;;;;;;5.56;63.06;98583.94;5053712;28;20029;-59
2021/11/09 00:33:44;;;;;;;0.55;0.32;;;;;;;5.38;63.40;98545.59;5053751;28;20024;-58
2021/11/09 00:36:10;;;;;;;0.88;0.40;;;;;;;5.33;63.53;98548.59;5053563;28;20033;-55
2021/11/09 00:38:36;;;;;;;0.57;0.40;;;;;;;5.50;63.45;98575.63;5054001;28;20033;-56
2021/11/09 00:41:02;;;;;;;0.45;0.30;;;;;;;5.44;63.65;98577.81;5048134;28;20044;-57
2021/11/09 00:43:28;;;;;;;3.60;0.47;;;;;;;5.50;64.23;98576.44;5033086;28;20087;-55
2021/11/09 00:45:53;;;;;;;1.85;0.45;;;;;;;5.53;64.14;98588.63;5034016;28;20029;-55
2021/11/09 00:48:19;;;;;;;0.60;0.40;;;;;;;5.39;64.41;98566.69;5033703;28;20060;-56
2021/11/09 00:50:46;;;;;;;0.77;0.45;;;;;;;5.54;64.23;98587.69;5033280;28;20466;-62
2021/11/09 00:53:14;;;;;;;3.78;0.50;;;;;;;5.49;64.41;98585.38;5032499;28;20540;-60
2021/11/09 00:55:41;;;;;;;0.93;0.40;;;;;;;5.48;65.03;98604.09;5033455;28;20038;-61
2021/11/09 00:58:08;;;;;;;1.08;0.50;;;;;;;5.39;65.00;98595.03;5033498;28;20378;-56
2021/11/09 01:00:36;;;;;;;0.70;0.30;;;;;;;5.42;65.52;98613.38;5033424;28;20029;-58
2021/11/09 01:03:04;;;;;;;0.50;0.50;;;;;;;5.43;64.99;98612.41;5033806;28;20090;-59
2021/11/09 01:05:31;;;;;;;0.63;0.47;;;;;;;5.10;66.06;98566.34;5032980;28;20060;-56
2021/11/09 01:08:00;;;;;;;1.85;0.50;;;;;;;5.28;66.64;98620.59;5033329;28;20033;-56
2021/11/09 01:10:30;;;;;;;0.80;0.40;;;;;;;5.26;66.33;98622.53;5033469;28;20025;-57
2021/11/09 01:12:57;;;;;;;0.75;0.38;;;;;;;5.20;66.62;98627.50;5032881;28;20560;-57
2021/11/09 01:15:22;;;;;;;0.95;0.45;;;;;;;5.16;67.10;98625.06;5032668;28;20030;-56
2021/11/09 01:17:49;;;;;;;1.45;0.30;;;;;;;5.08;67.58;98619.50;5033227;28;20040;-56
2021/11/09 01:20:19;;;;;;;0.40;0.40;;;;;;;5.14;67.28;98629.66;5033246;28;20838;-59
2021/11/09 01:22:46;;;;;;;1.20;0.60;;;;;;;5.08;67.59;98629.28;5032465;28;20489;-58
2021/11/09 01:25:13;;;;;;;1.33;0.45;;;;;;;5.08;67.64;98637.25;5031664;28;20033;-58
2021/11/09 01:27:38;;;;;;;1.13;0.50;;;;;;;4.84;67.78;98595.75;5033581;28;20034;-58
2021/11/09 01:30:07;;;;;;;2.15;0.40;;;;;;;5.10;67.54;98649.41;5032842;28;20087;-55
2021/11/09 01:32:33;;;;;;;0.45;0.45;;;;;;;5.03;66.87;98654.34;5032176;28;20029;-57
2021/11/09 01:34:59;;;;;;;0.85;0.50;;;;;;;4.92;67.75;98664.94;5031694;28;20028;-56
2021/11/09 01:37:25;;;;;;;0.63;0.50;;;;;;;4.82;68.94;98677.19;5032984;28;20323;-57
2021/11/09 01:39:51;;;;;;;0.45;0.45;;;;;;;4.79;68.64;98680.06;5032579;28;20042;-57
2021/11/09 01:42:16;;;;;;;0.45;0.38;;;;;;;4.74;68.39;98689.22;5030573;28;20109;-58
2021/11/09 01:44:42;;;;;;;1.92;0.30;;;;;;;4.72;68.20;98707.06;5032674;28;20033;-59
2021/11/09 01:47:08;;;;;;;0.45;0.20;;;;;;;4.62;68.16;98706.06;5031917;28;20030;-56
2021/11/09 01:49:35;;;;;;;0.40;0.20;;;;;;;4.53;68.03;98701.44;5032441;28;20025;-55
2021/11/09 01:52:00;;;;;;;0.93;0.10;;;;;;;4.28;67.49;98689.97;5032013;28;20029;-54
2021/11/09 01:54:26;;;;;;;1.13;0.70;;;;;;;4.23;67.22;98715.97;5031914;28;20121;-56
2021/11/09 01:56:52;;;;;;;0.30;0.30;;;;;;;4.09;67.96;98724.91;5032454;28;20068;-56
2021/11/09 01:59:17;;;;;;;0.45;0.20;;;;;;;3.86;68.35;98733.53;5032465;28;20033;-58
2021/11/09 02:01:43;;;;;;;0.65;0.30;;;;;;;3.73;68.89;98741.47;5032357;28;20030;-58
2021/11/09 02:04:09;;;;;;;0.43;0.30;;;;;;;3.62;69.48;98740.53;5031947;28;20117;-54
2021/11/09 02:06:35;;;;;;;0.30;0.30;;;;;;;3.50;68.94;98748.38;5032551;28;20037;-57
2021/11/09 02:09:11;;;;;;;0.82;0.40;;;;;;;3.52;69.63;98756.22;5032183;28;20355;-53
2021/11/09 02:11:37;;;;;;;0.60;0.22;;;;;;;3.37;70.20;98753.66;5031690;28;20069;-56
2021/11/09 02:14:04;;;;;;;0.68;0.40;;;;;;;3.36;69.86;98769.63;5031678;28;20040;-55
2021/11/09 02:16:31;;;;;;;0.60;0.30;;;;;;;3.28;70.22;98768.34;5032060;28;20021;-56
2021/11/09 02:18:57;;;;;;;0.50;0.30;;;;;;;3.24;70.29;98769.53;5031739;28;20033;-55
2021/11/09 02:21:24;;;;;;;0.50;0.20;;;;;;;3.17;70.74;98773.53;5031564;28;20037;-55
2021/11/09 02:23:49;;;;;;;0.70;0.22;;;;;;;3.22;70.93;98786.44;5030127;28;20049;-51
2021/11/09 02:26:18;;;;;;;0.43;0.20;;;;;;;3.25;71.24;98792.38;5031463;28;20171;-57
2021/11/09 02:28:45;;;;;;;0.10;0.10;;;;;;;3.22;71.03;98797.88;5031369;28;20030;-58
2021/11/09 02:31:12;;;;;;;0.15;0.10;;;;;;;3.20;70.38;98805.06;5031690;28;20029;-54
2021/11/09 02:33:38;;;;;;;0.43;0.22;;;;;;;3.13;70.89;98809.06;5031336;28;20370;-53
2021/11/09 02:36:03;;;;;;;0.30;0.20;;;;;;;3.18;71.39;98816.69;5031521;28;20029;-53
2021/11/09 02:38:29;;;;;;;0.85;0.30;;;;;;;3.21;70.46;98813.84;5031238;28;20048;-53
2021/11/09 02:40:57;;;;;;;0.70;0.20;;;;;;;2.96;70.81;98776.66;5044629;28;20035;-55
2021/11/09 02:43:24;;;;;;;0.15;0.10;;;;;;;3.21;70.66;98829.72;5051493;28;20061;-55
2021/11/09 02:48:40;;;;;;;0.40;0.17;;;;;;;3.13;70.56;98843.44;5051547;28;20136;-57
2021/11/09 02:51:22;;;;;;;0.20;0.20;;;;;;;3.12;70.82;98844.38;5049715;28;20133;-56
2021/11/09 02:53:55;;;;;;;0.20;0.20;;;;;;;3.09;71.24;98850.75;5050904;28;20116;-54
2021/11/09 02:56:24;;;;;;;0.30;0.10;;;;;;;3.14;70.60;98859.22;5050872;28;20114;-56
2021/11/09 03:06:32;;;;;;;1.38;0.10;;;;;;;3.05;71.07;98881.00;5049260;28;20380;-52
2021/11/09 03:11:37;;;;;;;0.20;0.10;;;;;;;3.05;71.61;98894.22;5048917;28;20029;-55
2021/11/09 03:14:03;;;;;;;0.10;0.10;;;;;;;2.79;71.20;98851.78;5050753;28;20033;-56
2021/11/09 03:16:32;;;;;;;0.88;0.30;;;;;;;3.11;71.30;98907.03;5049756;28;20087;-56
2021/11/09 03:19:19;;;;;;;1.27;0.20;;;;;;;2.89;71.94;98875.81;5049207;28;20075;-54
2021/11/09 03:44:17;;;;;;;0.73;0.20;;;;;;;2.92;71.71;98986.69;5053564;28;20044;-57
2021/11/09 03:46:46;;;;;;;0.95;0.20;;;;;;;2.95;71.12;99001.50;5054800;28;20159;-55
2021/11/09 03:49:13;;;;;;;0.52;0.20;;;;;;;2.95;71.44;99002.38;5054481;28;20033;-57
2021/11/09 03:51:39;;;;;;;0.75;0.20;;;;;;;2.91;70.65;99013.22;5053500;28;20032;-52
2021/11/09 03:54:11;;;;;;;0.20;0.20;;;;;;;2.89;70.85;99018.59;5054887;28;20025;-54
2021/11/09 03:56:41;;;;;;;0.77;0.30;;;;;;;2.84;71.39;99029.47;5054070;28;20037;-54
2021/11/09 03:59:13;;;;;;;0.30;0.30;;;;;;;2.69;71.33;99012.75;5054242;28;20044;-55
2021/11/09 04:01:50;;;;;;;1.10;0.30;;;;;;;2.76;70.87;99038.81;5054710;28;20083;-59
2021/11/09 04:06:48;;;;;;;1.95;0.20;;;;;;;2.64;71.17;99045.69;5054300;28;20116;-60
2021/11/09 04:09:23;;;;;;;0.47;0.25;;;;;;;2.55;71.45;99044.44;5054448;28;20031;-57
2021/11/09 04:17:03;;;;;;;0.63;0.30;;;;;;;2.54;71.83;99072.69;5054148;28;20040;-56
2021/11/09 04:20:13;;;;;;;1.98;0.40;;;;;;;2.47;71.18;99083.69;5053750;28;20100;-56
2021/11/09 04:49:55;;;;;;;2.83;0.70;;;;;;;2.22;71.18;99180.22;5053583;28;20025;-62
2021/11/09 05:10:48;;;;;;;3.35;2.03;;;;;;;2.40;69.70;99223.22;5051965;28;20067;-57
2021/11/09 05:13:14;;;;;;;3.60;2.17;;;;;;;2.36;68.99;99233.09;5052906;28;20035;-56
2021/11/09 05:15:40;;;;;;;2.47;1.77;;;;;;;2.32;68.56;99250.06;5052827;28;20029;-58
2021/11/09 05:18:06;;;;;;;3.17;2.42;;;;;;;2.36;69.04;99248.97;5052939;28;20070;-56
2021/11/09 05:20:31;;;;;;;5.75;2.53;;;;;;;2.41;67.93;99257.50;5051600;28;20480;-54
2021/11/09 05:22:58;;;;;;;3.35;2.42;;;;;;;2.41;67.18;99269.84;5052380;28;20128;-52
2021/11/09 05:25:25;;;;;;;3.30;2.20;;;;;;;2.28;67.24;99252.03;5053138;28;20063;-55
2021/11/09 05:27:52;;;;;;;3.55;2.47;;;;;;;2.26;67.02;99274.19;5053041;28;20089;-60
2021/11/09 05:30:18;;;;;;;4.03;2.50;;;;;;;2.22;67.67;99292.00;5050858;28;20112;-57
2021/11/09 05:32:44;;;;;;;3.60;2.40;;;;;;;2.21;67.70;99311.41;5052434;28;20122;-56
2021/11/09 05:35:11;;;;;;;3.42;2.58;;;;;;;2.22;68.09;99307.84;5052919;28;20048;-57
2021/11/09 05:37:42;;;;;;;4.75;2.80;;;;;;;2.22;67.20;99314.94;5052565;28;20123;-57
2021/11/09 05:40:08;;;;;;;3.50;2.35;;;;;;;2.17;66.79;99311.66;5048424;28;20396;-59
2021/11/09 05:42:34;;;;;;;7.50;2.80;;;;;;;2.18;67.69;99330.06;5039806;28;20043;-61
2021/11/09 05:45:01;;;;;;;5.30;3.17;;;;;;;2.22;66.96;99336.06;5040090;28;20029;-61
2021/11/09 05:47:28;;;;;;;6.00;3.15;;;;;;;2.23;67.26;99337.75;5040235;28;20033;-64
2021/11/09 05:49:54;;;;;;;4.82;2.85;;;;;;;2.18;66.66;99337.16;5042396;28;20417;-60
2021/11/09 05:52:20;;;;;;;5.57;3.10;;;;;;;2.15;66.33;99346.09;5039879;28;20159;-60
2021/11/09 05:54:45;;;;;;;5.07;3.13;;;;;;;2.08;66.32;99352.66;5041027;28;20060;-60
2021/11/09 05:57:11;;;;;;;4.80;3.22;;;;;;;2.09;66.41;99363.09;5042497;28;20454;-58
2021/11/09 05:59:36;;;;;;;4.43;3.00;;;;;;;2.08;67.08;99366.69;5040612;28;20030;-58
2021/11/09 06:02:02;;;;;;;4.97;2.95;;;;;;;2.13;66.97;99380.50;5041451;28;20052;-56
2021/11/09 06:04:28;;;;;;;5.95;3.47;;;;;;;2.08;67.72;99366.69;5041683;28;20037;-56
2021/11/09 06:06:53;;;;;;;5.63;3.53;;;;;;;2.26;67.59;99395.69;5041131;28;20096;-55
2021/11/09 06:09:19;;;;;;;5.55;3.50;;;;;;;2.32;66.51;99405.94;5042360;28;20408;-56
2021/11/09 06:11:45;;;;;;;6.13;3.50;;;;;;;2.28;65.58;99407.88;5040802;28;20366;-56
2021/11/09 06:14:11;;;;;;;5.63;3.67;;;;;;;2.28;65.19;99407.03;5042939;28;20366;-58
2021/11/09 06:16:36;;;;;;;5.43;3.83;;;;;;;2.20;64.35;99415.38;5051260;28;20409;-58
2021/11/09 06:19:04;;;;;;;7.72;4.60;;;;;;;2.26;65.18;99437.97;5051923;28;20033;-54
2021/11/09 06:21:30;;;;;;;6.28;4.07;;;;;;;2.27;64.94;99442.31;5053167;28;20036;-58
2021/11/09 06:23:56;;;;;;;4.75;3.70;;;;;;;2.35;64.03;99440.13;5031829;28;20057;-56
2021/11/09 06:26:23;;;;;;;2.92;2.47;;;;;;;2.33;63.82;99457.00;5030463;28;20052;-58
2021/11/09 06:28:51;;;;;;;4.90;3.15;;;;;;;2.29;63.51;99462.44;5031280;28;20414;-58
2021/11/09 06:31:17;;;;;;;3.35;2.58;;;;;;;2.28;63.27;99459.88;5031347;28;20076;-58
2021/11/09 06:33:42;;;;;;;4.78;2.72;;;;;;;2.26;62.72;99469.66;5030577;28;20037;-60
2021/11/09 06:36:08;;;;;;;4.85;2.97;;;;;;;2.24;62.82;99475.03;5031392;28;20048;-60
2021/11/09 06:38:34;;;;;;;5.40;2.90;;;;;;;2.31;61.81;99472.09;5011391;28;20045;-61
2021/11/09 06:40:59;;;;;;;2.97;2.42;;;;;;;2.39;61.37;99476.00;5031214;28;20033;-61
2021/11/09 06:43:25;;;;;;;2.95;2.28;;;;;;;2.36;61.03;99493.81;5049370;28;20113;-61
2021/11/09 06:45:52;;;;;;;3.42;2.03;;;;;;;2.25;60.61;99503.13;5049157;28;20041;-62
2021/11/09 06:48:18;;;;;;;3.83;2.00;;;;;;;1.93;61.26;99488.94;5049316;28;20060;-61
2021/11/09 06:50:44;;;;;;;2.47;2.20;;;;;;;1.98;61.46;99513.34;5049371;28;20028;-63
2021/11/09 06:53:10;;;;;;;3.65;2.05;;;;;;;1.80;61.67;99492.19;5050274;28;20090;-62
2021/11/09 06:55:37;;;;;;;2.83;2.00;;;;;;;2.01;61.43;99529.03;5050648;28;20127;-62
2021/11/09 06:58:04;;;;;;;3.67;2.00;;;;;;;1.80;60.94;99510.69;5050922;28;20033;-61
2021/11/09 07:00:30;;;;;;;2.88;2.10;;;;;;;1.92;61.01;99535.63;5050904;28;20033;-63
2021/11/09 07:02:55;;;;;;;2.72;2.00;;;;;;;1.88;60.62;99530.56;5045865;28;20021;-60
2021/11/09 07:05:22;;;;;;;3.95;1.80;;;;;;;1.75;60.63;99520.63;5029965;28;20061;-62
2021/11/09 07:07:48;;;;;;;3.22;1.67;;;;;;;1.67;61.13;99528.03;5013207;28;20026;-59
2021/11/09 07:10:14;;;;;;;1.45;1.27;;;;;;;1.81;61.29;99570.47;5031350;28;20055;-62
2021/11/09 07:12:40;;;;;;;3.72;1.73;;;;;;;1.73;60.97;99583.19;5031367;28;20462;-61
2021/11/09 07:15:07;;;;;;;2.78;1.42;;;;;;;1.70;61.46;99588.59;5030824;28;20026;-60
2021/11/09 07:17:33;;;;;;;2.92;1.65;;;;;;;1.66;61.68;99579.09;5030748;28;20060;-62
2021/11/09 07:20:03;;;;;;;5.03;1.67;;;;;;;1.74;60.88;99606.00;5029705;28;20093;-61
2021/11/09 07:22:28;;;;;;;3.03;1.48;;;;;;;1.69;60.88;99608.03;5030993;28;20025;-61
2021/11/09 07:24:56;;;;;;;3.40;1.42;;;;;;;1.72;60.97;99628.97;5031056;28;20059;-61
2021/11/09 07:27:22;;;;;;;4.25;1.98;;;;;;;1.67;60.69;99625.69;5030781;28;20107;-62
2021/11/09 07:29:49;;;;;;;2.80;1.10;;;;;;;1.69;59.93;99642.31;5029221;28;20457;-61
2021/11/09 07:32:17;;;;;;;3.28;1.52;;;;;;;1.54;59.80;99642.09;5031305;28;20071;-61
2021/11/09 07:34:43;;;;;;;2.78;1.30;;;;;;;1.41;59.34;99640.94;5031126;28;20112;-62
2021/11/09 07:37:09;;;;;;;3.42;1.02;;;;;;;1.43;59.75;99660.19;5030266;28;20400;-62
2021/11/09 07:39:36;;;;;;;2.67;1.40;;;;;;;1.47;59.79;99660.91;5037259;28;20036;-62
2021/11/09 07:42:03;;;;;;;6.68;1.50;;;;;;;1.38;59.58;99644.59;5050670;28;20439;-64
2021/11/09 07:44:28;;;;;;;3.35;1.10;;;;;;;1.66;59.02;99679.41;5050097;28;20033;-60
2021/11/09 07:46:54;;;;;;;2.45;1.30;;;;;;;1.68;58.52;99696.00;5031415;28;20091;-55
2021/11/09 07:49:19;;;;;;;1.50;1.00;;;;;;;1.68;58.68;99699.53;5042858;28;20044;-61
2021/11/09 07:51:45;;;;;;;1.67;1.10;;;;;;;1.66;57.79;99689.94;5049950;28;20032;-59
2021/11/09 07:54:11;;;;;;;5.43;1.10;;;;;;;1.62;58.08;99712.13;5031881;28;20037;-62
2021/11/09 07:56:39;;;;;;;1.88;0.85;;;;;;;1.62;57.57;99717.41;5048998;28;20111;-62
2021/11/09 08:01:46;;;;;;;3.13;0.90;;;;;;;1.49;57.20;99736.44;5048687;28;20131;-62
2021/11/09 08:04:23;;;;;;;2.22;1.15;;;;;;;1.45;57.24;99745.44;5059256;28;20132;-57
2021/11/09 08:07:13;;;;;;;1.95;0.88;;;;;;;1.45;57.73;99752.47;5065251;28;20035;-59
2021/11/09 08:09:35;;;;;;;2.72;0.93;;;;;;;1.54;57.07;99755.56;5055707;28;20036;-64
2021/11/09 08:12:03;;;;;;;2.25;1.08;;;;;;;1.69;56.57;99766.38;5061057;28;20376;-61
2021/11/09 08:14:29;;;;;;;2.60;1.38;;;;;;;1.76;56.46;99767.81;5040139;28;20043;-61
2021/11/09 08:16:56;;;;;;;3.58;1.20;;;;;;;1.75;56.40;99774.00;5063486;28;20029;-63
2021/11/09 08:19:22;;;;;;;2.75;0.98;;;;;;;1.79;56.90;99783.50;5054572;28;20188;-62
2021/11/09 08:21:51;;;;;;;4.15;1.20;;;;;;;1.82;56.85;99778.09;5062776;28;20036;-59
2021/11/09 08:24:19;;;;;;;4.60;1.52;;;;;;;1.90;56.92;99792.72;5059349;28;20148;-63
2021/11/09 08:26:46;;;;;;;3.05;1.38;;;;;;;1.90;56.52;99804.13;5055148;28;20047;-60
2021/11/09 08:29:12;;;;;;;2.40;1.00;;;;;;;1.93;56.51;99806.63;5047403;28;20439;-62
2021/11/09 08:31:43;;;;;;;2.70;1.35;;;;;;;1.84;56.26;99804.44;5049361;28;20047;-59
2021/11/09 08:34:09;;;;;;;4.07;1.08;;;;;;;1.84;56.58;99810.53;5060776;28;20483;-63
2021/11/09 08:36:35;;;;;;;3.53;1.50;;;;;;;1.77;56.42;99822.31;5069205;28;20052;-59
2021/11/09 08:39:05;;;;;;;2.78;1.30;;;;;;;1.55;56.82;99807.41;5055231;28;20067;-59
2021/11/09 08:44:26;;;;;;;2.05;1.10;;;;;;;1.64;55.76;99839.59;5038405;28;20045;-62
2021/11/09 08:46:58;;;;;;;2.75;1.10;;;;;;;1.51;55.81;99816.41;5055221;28;20033;-60
2021/11/09 08:49:26;;;;;;;3.05;1.20;;;;;;;1.82;55.50;99857.28;5060618;28;20037;-56
2021/11/09 08:51:54;;;;;;;2.65;1.20;;;;;;;1.57;55.21;99821.41;5045636;28;20042;-61
2021/11/09 08:54:25;;;;;;;5.82;1.23;;;;;;;1.58;55.04;99833.66;5053642;28;20037;-62
2021/11/09 08:57:03;;;;;;;1.80;1.02;;;;;;;1.78;54.50;99866.25;5067533;28;20074;-62
2021/11/09 09:04:58;;;;;;;5.07;1.17;;;;;;;2.25;52.75;99886.19;5068808;28;20032;-69
2021/11/09 09:07:26;;;;;;;1.67;0.85;;;;;;;2.38;52.05;99901.50;5058781;28;20029;-70
2021/11/09 09:09:53;;;;;;;2.25;0.70;;;;;;;2.04;50.72;99866.91;5062323;28;20029;-68
2021/11/09 09:12:24;;;;;;;2.95;0.90;;;;;;;1.88;51.86;99897.53;5064339;28;20051;-70
2021/11/09 09:14:51;;;;;;;4.50;0.93;;;;;;;1.50;52.48;99898.25;5053735;28;20037;-66
2021/11/09 09:17:17;;;;;;;1.60;0.98;;;;;;;1.36;53.21;99906.75;5068229;28;20025;-72
2021/11/09 09:20:10;;;;;;;2.55;1.15;;;;;;;1.21;53.61;99910.88;5063341;28;20421;-64
2021/11/09 09:22:40;;;;;;;3.05;1.23;;;;;;;1.16;53.86;99902.28;5065235;28;20044;-63
2021/11/09 09:25:51;;;;;;;5.20;1.60;;;;;;;1.10;53.70;99919.19;5038499;28;20040;-65
2021/11/09 09:54:41;;;;;;;3.05;1.52;;;;;;;1.33;54.15;99944.69;5055872;28;20033;-64
2021/11/09 09:57:08;;;;;;;2.45;1.17;;;;;;;1.25;53.60;99936.19;5037257;28;20025;-65
2021/11/09 09:59:36;;;;;;;3.63;1.20;;;;;;;1.36;53.45;99964.78;5058199;28;20051;-62
2021/11/09 10:02:24;;;;;;;5.95;1.60;;;;;;;1.23;53.47;99930.13;5059526;28;20039;-68
2021/11/09 10:04:54;;;;;;;4.65;1.88;;;;;;;1.40;52.51;99967.25;5064128;28;20032;-67
2021/11/09 10:07:27;;;;;;;7.88;2.22;;;;;;;1.30;53.50;99971.16;5056888;28;20406;-67
2021/11/09 10:09:53;;;;;;;4.50;1.55;;;;;;;1.35;53.48;99985.03;5042383;28;20033;-65
2021/11/09 10:12:34;;;;;;;2.88;1.13;;;;;;;1.42;53.44;99975.94;5064964;28;20090;-63
2021/11/09 10:15:11;;;;;;;3.22;1.13;;;;;;;1.54;52.82;99990.44;5054552;28;20123;-68
2021/11/09 10:17:39;;;;;;;2.15;1.10;;;;;;;1.58;52.85;100002.56;5063220;28;20080;-71
2021/11/09 10:20:27;;;;;;;3.78;0.95;;;;;;;1.85;52.79;100012.91;5061291;28;20032;-67
2021/11/09 10:23:00;;;;;;;2.45;1.20;;;;;;;1.98;51.34;100015.91;5053461;28;20045;-66
2021/11/09 10:25:28;;;;;;;5.80;1.67;;;;;;;2.13;50.60;100024.94;5064552;28;20435;-66
2021/11/09 10:28:00;;;;;;;5.35;1.17;;;;;;;2.27;50.25;100028.81;5060715;28;20032;-64
2021/11/09 10:30:34;;;;;;;3.95;1.35;;;;;;;2.46;50.31;100041.22;5054767;28;20116;-64
2021/11/09 10:33:00;;;;;;;2.50;1.00;;;;;;;2.56;49.37;100042.53;5067234;28;20100;-65
2021/11/09 10:35:27;;;;;;;1.65;0.77;;;;;;;2.65;48.90;100054.50;5057335;28;20519;-65
2021/11/09 10:37:56;;;;;;;4.25;1.30;;;;;;;2.57;49.60;100062.75;5059550;28;20033;-66
2021/11/09 10:40:28;;;;;;;2.28;1.23;;;;;;;2.38;49.36;100063.53;5063267;28;20384;-66
2021/11/09 10:43:04;;;;;;;6.00;1.20;;;;;;;2.21;50.55;100068.69;5054256;28;20099;-64
2021/11/09 10:45:33;;;;;;;3.13;1.00;;;;;;;2.13;49.78;100072.50;5062599;28;20355;-64
2021/11/09 10:48:20;;;;;;;2.70;0.73;;;;;;;2.11;50.64;100047.94;5061397;28;20449;-63
2021/11/09 10:50:49;;;;;;;3.28;0.80;;;;;;;2.21;49.69;100074.00;5052157;28;20025;-65
2021/11/09 11:06:30;;;;;;;1.65;0.77;;;;;;;2.17;49.96;100110.22;5064412;28;20029;-62
2021/11/09 11:09:11;;;;;;;8.20;1.15;;;;;;;2.06;49.79;100115.94;5053504;28;20117;-64
2021/11/09 11:11:44;;;;;;;3.63;1.30;;;;;;;1.81;49.61;100124.84;5062529;28;20037;-65
2021/11/09 11:14:16;;;;;;;6.32;0.93;;;;;;;1.43;50.62;100101.66;5061941;28;20115;-62
2021/11/09 11:16:48;;;;;;;4.80;1.13;;;;;;;1.35;51.18;100143.31;5052456;28;20035;-66
2021/11/09 11:19:31;;;;;;;2.03;1.10;;;;;;;1.26;51.72;100138.38;5065687;28;20056;-63
2021/11/09 11:22:06;;;;;;;4.40;1.13;;;;;;;1.28;51.88;100153.25;5061065;28;20035;-64
2021/11/09 11:24:33;;;;;;;3.42;0.82;;;;;;;1.38;50.99;100148.47;5054621;28;20077;-64
2021/11/09 11:26:59;;;;;;;5.10;0.80;;;;;;;1.51;50.87;100159.44;5065369;28;20373;-64
2021/11/09 11:29:28;;;;;;;2.67;0.88;;;;;;;1.57;51.05;100161.84;5054713;28;20071;-65
2021/11/09 11:31:55;;;;;;;3.97;0.88;;;;;;;1.54;50.69;100172.50;5059553;28;20064;-65
2021/11/09 11:34:22;;;;;;;2.40;0.68;;;;;;;1.55;51.06;100176.88;5063750;28;20031;-65
2021/11/09 11:36:49;;;;;;;1.63;0.70;;;;;;;1.51;50.52;100182.31;5053888;28;20048;-64
2021/11/09 11:39:17;;;;;;;4.45;1.08;;;;;;;1.44;50.99;100186.94;5063848;28;20127;-61
2021/11/09 11:41:45;;;;;;;2.55;0.93;;;;;;;1.42;50.78;100202.84;5058908;28;20056;-65
2021/11/09 11:44:19;;;;;;;1.60;0.73;;;;;;;1.40;50.81;100204.69;5057685;28;20036;-64
2021/11/09 11:46:47;;;;;;;1.67;0.93;;;;;;;1.43;50.37;100222.16;5055363;28;20469;-64
2021/11/09 11:49:20;;;;;;;3.55;0.90;;;;;;;1.38;50.68;100200.38;5064726;28;20156;-64
2021/11/09 11:51:45;;;;;;;3.13;1.13;;;;;;;1.33;50.50;100199.69;5059262;28;20089;-66
2021/11/09 11:54:36;;;;;;;5.93;0.80;;;;;;;1.33;50.73;100218.16;5057581;28;20419;-62
2021/11/09 11:57:02;;;;;;;3.35;0.90;;;;;;;1.22;50.12;100224.69;5066164;28;20142;-63
2021/11/09 11:59:27;;;;;;;2.58;0.93;;;;;;;1.24;50.65;100233.41;5056884;28;20843;-64
2021/11/09 12:01:56;;;;;;;2.03;0.75;;;;;;;1.19;50.92;100243.22;5063399;28;20049;-62
2021/11/09 12:04:40;;;;;;;4.55;0.85;;;;;;;1.25;51.21;100256.22;5066638;28;20032;-62
2021/11/09 12:07:07;;;;;;;2.15;0.98;;;;;;;1.11;50.57;100240.00;5041650;28;20381;-64
2021/11/09 12:09:42;;;;;;;2.67;0.85;;;;;;;1.17;50.49;100262.69;5066483;28;20033;-71
2021/11/09 12:12:20;;;;;;;2.53;0.80;;;;;;;1.14;51.42;100268.91;5047899;28;20119;-62
2021/11/09 12:14:55;;;;;;;3.90;1.00;;;;;;;1.07;51.21;100259.50;5056696;28;20058;-64
2021/11/09 12:17:40;;;;;;;2.17;0.90;;;;;;;1.03;51.31;100282.47;5067813;28;20028;-63
2021/11/09 12:20:09;;;;;;;4.03;1.40;;;;;;;0.90;51.46;100286.44;5065713;28;20128;-62
2021/11/09 12:22:42;;;;;;;2.60;1.00;;;;;;;0.75;51.75;100286.03;5038999;28;20527;-62
2021/11/09 12:25:15;;;;;;;2.25;0.82;;;;;;;0.66;52.50;100296.88;5041842;28;20033;-68
2021/11/09 12:27:51;;;;;;;3.47;0.77;;;;;;;0.62;52.45;100300.53;5063433;28;20116;-64
2021/11/09 12:30:32;;;;;;;3.25;1.20;;;;;;;0.62;52.66;100311.91;5065818;28;20028;-64
2021/11/09 12:33:04;;;;;;;2.80;0.90;;;;;;;0.55;52.97;100315.66;5052621;28;20528;-59
2021/11/09 12:35:30;;;;;;;4.47;1.10;;;;;;;0.66;52.87;100320.59;5046358;28;20028;-62
2021/11/09 12:38:02;;;;;;;3.60;0.90;;;;;;;0.74;52.75;100331.75;5044746;28;20031;-61
2021/11/09 12:40:48;;;;;;;2.15;1.08;;;;;;;0.76;53.27;100329.91;5048660;28;20038;-62
2021/11/09 12:43:33;;;;;;;2.72;0.93;;;;;;;0.82;53.31;100339.41;5042793;28;20040;-61
2021/11/09 12:46:28;;;;;;;3.55;1.30;;;;;;;0.79;53.47;100352.69;5041680;28;20139;-63
2021/11/09 12:48:59;;;;;;;2.00;1.10;;;;;;;0.76;53.44;100358.06;5039352;28;20033;-64
2021/11/09 12:51:36;;;;;;;1.83;1.08;;;;;;;0.77;53.50;100349.25;5065199;28;20449;-58
2021/11/09 12:54:07;;;;;;;2.85;1.00;;;;;;;0.65;53.75;100348.69;5063836;28;20070;-62
2021/11/09 12:56:33;;;;;;;2.17;1.00;;;;;;;0.74;53.96;100365.16;5056624;28;20028;-58
2021/11/09 12:59:06;;;;;;;4.93;1.23;;;;;;;0.67;53.79;100365.31;5069057;28;20043;-61
2021/11/09 13:09:48;;;;;;;2.10;0.90;;;;;;;0.72;54.14;100381.00;5047358;28;20037;-60
2021/11/09 13:12:18;;;;;;;2.50;0.88;;;;;;;0.75;54.54;100380.91;5043637;28;20112;-63
2021/11/09 13:14:54;;;;;;;6.15;1.05;;;;;;;0.69;53.99;100381.09;5046771;28;20083;-62
2021/11/09 13:17:23;;;;;;;2.65;1.27;;;;;;;0.65;54.36;100377.69;5043615;28;20033;-59
2021/11/09 13:20:14;;;;;;;3.00;1.10;;;;;;;0.59;54.30;100377.88;5058540;28;20043;-62
2021/11/09 13:22:48;;;;;;;2.25;0.80;;;;;;;0.68;54.11;100406.59;5055366;28;20068;-63
2021/11/09 13:25:19;;;;;;;2.10;0.80;;;;;;;0.56;54.50;100401.69;5066198;28;20052;-60
2021/11/09 13:27:48;;;;;;;4.95;0.98;;;;;;;0.53;54.50;100401.78;5060332;28;20085;-62
2021/11/09 13:30:24;;;;;;;3.40;0.77;;;;;;;0.43;54.90;100399.41;5058169;28;20051;-61
2021/11/09 13:32:54;;;;;;;;;;;;;;;0.67;55.00;100420.66;5036836;28;20381;-61
2021/11/09 13:35:30;;;;;;;2.83;0.95;;;;;;;0.47;54.37;100401.94;5065023;28;20105;-61
2021/11/09 13:38:10;;;;;;;3.42;0.90;;;;;;;0.56;54.19;100422.78;5061243;28;20028;-62
2021/11/09 13:40:43;;;;;;;4.25;1.10;;;;;;;0.28;54.88;100421.78;5056409;28;20174;-59
2021/11/09 13:43:12;;;;;;;2.50;1.00;;;;;;;0.36;55.32;100449.69;5055506;28;20113;-66
2021/11/09 13:45:39;;;;;;;7.47;1.20;;;;;;;0.21;54.76;100438.69;5062504;28;20124;-58
2021/11/09 13:48:16;;;;;;;2.75;0.80;;;;;;;0.22;54.96;100445.69;5062198;28;20231;-60
2021/11/09 13:50:44;;;;;;;2.65;1.00;;;;;;;0.12;54.85;100457.34;5053834;28;20110;-61
2021/11/09 13:53:10;;;;;;;3.33;0.88;;;;;;;-0.08;54.92;100447.38;5065545;28;20033;-66
2021/11/09 13:55:38;;;;;;;3.20;1.00;;;;;;;-0.15;54.61;100434.38;5059531;28;20027;-65
2021/11/09 13:58:04;;;;;;;2.03;0.90;;;;;;;0.01;54.89;100489.25;5060153;28;20107;-66
2021/11/09 14:00:39;;;;;;;2.83;1.00;;;;;;;-0.07;55.31;100472.78;5057459;28;20540;-65
2021/11/09 14:16:38;;;;;;;4.22;2.10;;;;;;;-0.11;55.92;100518.53;5052446;28;20067;-60
2021/11/09 14:19:14;;;;;;;1.42;1.00;;;;;;;-0.09;55.66;100545.66;5052030;28;20028;-63
2021/11/09 14:21:43;;;;;;;3.58;1.10;;;;;;;-0.10;55.74;100534.28;5062837;28;20480;-66
2021/11/09 14:24:13;;;;;;;3.92;1.10;;;;;;;-0.08;55.85;100547.41;5062333;28;20384;-66
2021/11/09 14:26:40;;;;;;;3.75;0.82;;;;;;;-0.06;55.83;100542.94;5050380;28;20458;-65
2021/11/09 14:29:23;;;;;;;3.22;1.10;;;;;;;-0.02;55.87;100536.69;5038347;28;20087;-64
2021/11/09 14:32:16;;;;;;;4.20;1.20;;;;;;;-0.09;55.93;100550.94;5042545;28;20024;-63